Bihrmann's

DIVE LOG part 2, Bonaire 1
Part 1                                              Part 3


All dives are directly from the shore. All dives without operator, except the first: Blue Water Dives.
All dives in 3 mm shorty. 12 l aluminium tank on all dives. Morten have verified all dives.
Debt in meters, Temperatures in Celsius, Weight in kilograms, Pressure in BAR, Visibility in metres.


Notes Date No. US$ Location Time in Depth O2 Start air Stop air Total time This dive New total Weather Air temp Water temp. Visi-bilit Kg Sightings
  06 11 20 30 21 Andrea I + II 15.37 12,8 21% 210 90 22:59 00:47 00:23:46 Excellent 32 29 20 3 Porcupine fish, Large Concylia, Barracudas
  06 11 20 31 8 The Lake 18.07 9,1 21% 210 150 23:46 00:16 01:00:02 Excellent 32 29 15 2 Plenty
  06 11 21 32 8 1000 Steps 8.43 13,4 21% 140 40 00:02 00:44 01:00:46 Excellent 32 29 20-30 2,5 Spotted Eel, Sand Diver, Creole Wresse, Christmas Tree Worms, Tiger Grouper, Gobies, Banded Butterflyfish
  06 11 21 33 8 Red Beryl 14.10 14 21% 140 40 00:46 00:53 01:01:39 Excellent 32 29 15-20 2,5 Arrow Crab, Stoplight Parrot, Flamingo toughed Snail, Porcupinefish, Trumpet, Black Soldier, Spotted Trunk
  06 11 21 34 8 Something Special 17.20 9,8 21% 210 90 01:39 00:42 01:02:21 Excellent 32 29 15-20 2,5 Eagle Ray, 12Tarpons, Morays, 9CaribbReef Squirts, Fireworm, Golden Tailed Moray, Spotted Cleaner Shrimps, Scorpion fish.
  06 11 22 35 8 Jeannie's Glory 8.53 16 21% 200 50 02:21 00:57 01:03:18 Excellent 32 28 20-35 2,5 Giant Tuna. Plenty!
  06 11 22 36 8 Tori's Reef 12.24 18 21% 200 30 03:18 01:00 01:04:18 Excellent 32 28 20-35 2,5 Plenty!
  06 11 22 37 8 Rappel (Boca di Tolo) 15.39 15 21% 210 70 04:18 01:05 01:05:23 Excellent 32 28 20-35 2,5 Double Reef. Rough large coral. Plenty!
  06 11 23 38 8 Angel City 8.45 14,3 21% 170 60 05:23 00:38 01:06:01 Excellent 30 28 20-30 2,5 Octopus
  06 11 23 39 20 dives Alice in Wonderland 10.06 13,1 21% 210 87 06:01 00:50 01:06:51 Excellent 30 28 20-30 2,5 Plenty!
  06 11 23 40 in 7 days Bari's Reef 13.45 18 21% 210 90 06:51 00:39 01:07:30 Excellent 33 28 20-30 2,5 Plenty!
  06 11 24 41 8 Nukove 11.15 23 21% 210 70 07:30 00:44 01:08:14 Excellent 33 28 20-35 2,5 Giant Lobster, Bull Trunkfish Plenty!
  06 11 24 42 8 Playa Funchi 14.29 17,3 21% 210 40 08:14 00:53 01:09:07 Excellent 33 28 20-35 2,5 Southern Stingray. Rough Shore. Plenty!
  06 11 25 43 8 Light Tover 10.08 17,1 21% 210 60 09:07 00:39 01:09:46 Excellent 33 28 20-30 2,5 Tarpon. Plenty!
Nitrox 06 11 25 44 8 Oil Slick Leap 13.55 13,7 21% 170 60 09:46 00:43 01:10:29 Excellent 33 28 20-35 2,5 Plenty!
course 06 11 26 45 8 18 Palms 8.22 17,4 21% 210 70 10:29 00:47 01:11:16 Excellent 33 28 30 2,5 Plenty!
 71$ 06 11 26 46 8 Bachlors Beach 10.03 17,1 32% 210 95 11:16 00:50 01:12:06 Excellent 33 28 30 2,5 Spotted Cleaner Crab, Spotted Eal, Banded Butterfly, Bluestribed Grunt, Slender File, Small Mouth Grynt, Spotted  Moray, Black Bar Solider, Carib. Reef Squirt, Creole Brasse, Scholl master, Scorpion fish and much more
  06 11 26 47 8 Bari Reef 12.57 15 21% 210 75 12:06 00:51 01:12:57 Excellent 33 28 30 2,5 Plenty!
  06 11 26 48 8 Weber's Joy/Witch's Hut 15.30 18 21% 210 110 12:57 00:31 01:13:28 Excellent 33 28 30 2,5 Great view. Plenty!
  06 11 26 49 8 Karpata 16.43 14,3 21% 210 130 13:28 00:31 01:13:59 Excellent 33 28 30 2,5 Octopus. Current, not shaved, too little weight
  06 11 30 50 12 North Belnem 9.44 10,1 32% 210 130 13:59 00:20 01:14:19 Excellent 33 28 30 2,5 Plenty!
  06 11 30 51 12 Karpata 11.14 19,5 32% 210 110 14:19 00:44 01:15:03 Excellent 33 28 30 4 Plenty!
  06 11 30 52 12 Yellow Sub House Reef 13.30 19,5 32% 210 70 15:03 00:55 01:15:58 Excellent 33 28 20-30 4 Great wreck. Plenty life.
Wreck 06 11 30 53 12 Hilma Hooker 16.04 21 32% 200 70 15:58 00:41 01:16:39 Excellent 33 28 15-35 4 Butterfly, squirts. No reef!
  06 12 01 54 12 Front Porch 9.15 18 32% 210 125 16:39 00:33 01:17:12 Excellent 30 28 30-40 4 Scorpion. 
Tooth 06 12 01 55 12 Cliff + La Machaca 10.37 14,9 32% 210 80 17:12 00:49 01:18:01 Excellent 32 28 10-40 4  
  06 12 01 56 12 Kalabas Reef 13.45 16,5 32% 210 50 18:01 01:03 01:19:04 Rain 30 28 0-25 4 Blue Jawfish
  06 12 01 57 12 OlŽBlue 16.42 18 32% 210 90 19:04 00:46 01:19:50 Excellent 32 28 30 4 Spotted Drumfish
  06 12 02 58 12 Windsock 9.51 18,9 32% 210 80 19:50 00:36 01:20:26 Rain 29 28 0-25 4 Green Sea turtle
  06 12 02 59 12 Oil Sleack Leap 12.38 20,7 32% 210 70 20:26 00:42 01:21:08 Cloudy 30 28 30-40 4 Cleaner Shrimps, Spottet Eagle Ray
  06 12 02 60 12 Something Special 14.11 20 32% 210 95 21:08 00:52 01:22:00 Cloudy 29 28 20-40 4 Sculptured Slipper Lobster
  06 12 02 61 12 Punt Vierkant 16.49 18,9 32% 210 90 22:00 00:46 01:22:46 Fair 30 28 30-40 4  
  06 12 03 62 12 Petrie's Pillar 8.57 18,6 32% 210 90 22:46 00:50 01:23:36 Fair 31 28 20-40 4  
  06 12 03 63 12 Jeff Davi's Memorial 10.55 21,3 32% 210 70 23:36 00:50 02:00:26 Good 32 28 30 4 Long swim to 2. reef.
  06 12 03 64 12 Aquarious 13.28 17,5 32% 210 75 00:26 00:45 02:01:11 Good 32 28 10-45 4 Blue + Midnight Parrotfish. Scrawled Filefish
  06 12 03 65 12 Oil Sleack Leap 16.24 19,8 32% 210 90 01:11 00:46 02:01:57 Cloudy 29 28 30 4 No reef, a wall. Spotted eagle ray. Plenty seaanemones
  06 12 04 66 12 Cai 9.20 7,3 32% 210   01:57 00:46 02:02:43 Excellent 32 27 5-30 4 Current
  06 12 04 67 12 White Slave 11.23 27,1 32% 190 80 02:43 00:23 02:03:06 Excellent 32 28 30 4 Green Sea turtle, 15 minutes
  06 12 04 68 12 1000 Steps 14.48 17,7 32% 210 85 03:06 00:48 02:03:54 Excellent 33 30 30-40 4 Morays x 3. One Purple Mouth
  06 12 04 69 27dives Yellow Sub House Reef 17.03 18,3 32% 210 75 03:54 00:50 02:04:44 Excellent 32 28 20-40 4  
  06 12 05 70 in 8 days Bisse Morto 9.53 17,7 32% 210 70 04:44 00:41 02:05:25 Excellent 32 28 5-35 4 Green , Blue litchis nudibranch. Dead corals, plenty fish
  06 12 05 71 12 Wayaka 11.51 18 32% 210 110 05:25 00:36 02:06:01 Excellent 33 28 30-40 4 Dead corals, plenty fish
  06 12 05 72 This tour Boka Slagbaai 13.48 15,2 32% 210 120 06:01 00:31 02:06:32 Excellent 32 28 10-30 4 Green turtle
  06 12 06 73 34,75 h Hilma Hooker 9.13 22 32% 200 50 06:32 00:51 02:07:23 Excellent 32 28 20-45 4  
  06 12 06 74 12 Jeannie's Glory 11.06 21 32% 210 85 07:23 00:46 02:08:09 Excellent 32 28 30-40 4  
  06 12 06 75 12 North Belnem 13.27 21,3 32% 210 70 08:09 00:49 02:08:58 Excellent 33 28 30-40 4 Large crab.
  06 12 06 76 12 Alice in Wonderland 15.11 15,5 32% 210 100 08:58 00:44 02:09:42 Excellent 33 28 30-45 4 Plenty of small fish + soft- and hard corals